Time;durP1;ratioP1;P1;durP2;ratioP2;P2;SDS_P1;SDS_P2;PMS_P1;PMS_P2;Temp;Humidity;BMP_temperature;BMP_pressure;BME280_temperature;BME280_humidity;BME280_pressure;Samples;Min_cycle;Max_cycle;Signal;HPM_P1;HPM_P2
2021/09/06 00:01:35;;;;;;;;;30.67;28.00;;;;;21.65;63.60;101772.03;4967702;28;45474;-77
2021/09/06 00:04:00;;;;;;;;;25.67;24.33;;;;;21.60;63.85;101754.22;4949663;28;45474;-76
2021/09/06 00:06:26;;;;;;;;;29.33;25.33;;;;;21.62;63.98;101760.44;4949323;28;49531;-78
2021/09/06 00:08:51;;;;;;;;;28.33;23.00;;;;;21.60;63.64;101763.16;4949612;28;45389;-78
2021/09/06 00:11:16;;;;;;;;;25.33;22.67;;;;;21.58;63.29;101762.31;4950659;28;58007;-76
2021/09/06 00:13:42;;;;;;;;;22.67;22.33;;;;;21.57;63.50;101770.41;4951092;28;51487;-77
2021/09/06 00:16:07;;;;;;;;;23.67;20.67;;;;;21.55;63.36;101764.19;4950401;28;45473;-76
2021/09/06 00:18:33;;;;;;;;;28.00;25.00;;;;;21.54;63.98;101762.41;4952228;28;49706;-77
2021/09/06 00:20:58;;;;;;;;;24.00;19.67;;;;;21.50;63.53;101764.25;4948978;28;45489;-78
2021/09/06 00:23:27;;;;;;;;;20.67;20.67;;;;;21.50;63.66;101771.44;4987329;23;45393;-76
2021/09/06 00:25:53;;;;;;;;;18.00;18.00;;;;;21.47;63.92;101774.22;5054904;28;45451;-78
2021/09/06 00:28:18;;;;;;;;;26.00;23.00;;;;;21.44;64.01;101773.34;5053849;28;46437;-78
2021/09/06 00:30:44;;;;;;;;;23.33;22.67;;;;;21.37;63.49;101771.69;5054529;28;45485;-77
2021/09/06 00:33:09;;;;;;;;;22.67;21.33;;;;;21.38;63.52;101773.44;5051144;28;48399;-78
2021/09/06 00:35:35;;;;;;;;;20.00;20.00;;;;;21.34;63.96;101770.84;5051366;28;45773;-77
2021/09/06 00:38:00;;;;;;;;;28.00;20.00;;;;;21.33;64.26;101774.44;5041798;28;47250;-77
2021/09/06 00:40:26;;;;;;;;;21.67;21.00;;;;;21.30;64.20;101770.00;5040906;28;56174;-75
2021/09/06 00:42:51;;;;;;;;;25.33;21.67;;;;;21.28;63.68;101774.50;5044111;28;52676;-78
2021/09/06 00:45:16;;;;;;;;;18.67;18.33;;;;;21.21;64.35;101762.09;5051159;28;48565;-77
2021/09/06 00:47:42;;;;;;;;;20.33;18.33;;;;;21.23;64.30;101780.88;5051987;28;54327;-78
2021/09/06 00:50:12;;;;;;;;;21.33;20.33;;;;;21.17;63.73;101765.75;5047641;28;45462;-76
2021/09/06 00:52:39;;;;;;;;;20.00;19.33;;;;;21.17;64.39;101777.38;5056798;28;46397;-77
2021/09/06 00:55:05;;;;;;;;;21.00;17.33;;;;;21.10;64.51;101764.97;5058554;28;46717;-75
2021/09/06 00:57:31;;;;;;;;;25.67;21.67;;;;;21.08;64.48;101763.22;5062820;28;47478;-78
2021/09/06 00:59:56;;;;;;;;;22.00;20.00;;;;;21.08;64.02;101777.53;5054702;28;47928;-78
2021/09/06 01:02:21;;;;;;;;;20.33;18.67;;;;;21.06;64.08;101768.63;5048784;28;45478;-76
2021/09/06 01:04:47;;;;;;;;;20.33;18.67;;;;;21.05;64.75;101779.41;5054749;28;50740;-78
2021/09/06 01:07:12;;;;;;;;;20.67;19.00;;;;;21.03;64.77;101786.59;5054318;28;46255;-78
2021/09/06 01:09:38;;;;;;;;;20.33;17.33;;;;;21.02;64.42;101784.81;5054335;28;51435;-76
2021/09/06 01:12:04;;;;;;;;;21.67;20.67;;;;;20.96;64.73;101769.69;5056880;28;45386;-78
2021/09/06 01:14:29;;;;;;;;;20.33;19.33;;;;;20.97;64.76;101778.63;5054952;28;45570;-77
2021/09/06 01:16:55;;;;;;;;;22.00;21.00;;;;;20.94;64.80;101774.22;5058196;28;59311;-76
2021/09/06 01:19:20;;;;;;;;;22.33;19.67;;;;;20.94;64.32;101776.91;5041948;28;51707;-78
2021/09/06 01:21:46;;;;;;;;;22.33;21.00;;;;;20.93;64.89;101770.66;5056172;28;46183;-77
2021/09/06 01:24:14;;;;;;;;;21.00;17.00;;;;;20.90;64.93;101773.38;5037741;28;45318;-78
2021/09/06 01:26:39;;;;;;;;;24.00;21.33;;;;;20.87;65.00;101776.09;5044504;28;46186;-76
2021/09/06 01:29:06;;;;;;;;;22.00;18.33;;;;;20.87;65.12;101776.09;5044855;28;46119;-78
2021/09/06 01:31:32;;;;;;;;;21.00;16.67;;;;;20.85;65.20;101777.94;5061423;28;45536;-76
2021/09/06 01:33:57;;;;;;;;;21.67;19.33;;;;;20.83;64.85;101779.78;5054539;28;52553;-76
2021/09/06 01:36:23;;;;;;;;;24.00;20.33;;;;;20.80;65.16;101774.44;5059258;28;54123;-79
2021/09/06 01:38:48;;;;;;;;;23.33;21.33;;;;;20.77;64.83;101776.28;5054937;28;61162;-76
2021/09/06 01:41:13;;;;;;;;;21.33;19.00;;;;;20.74;64.65;101784.41;5055364;28;45760;-76
2021/09/06 01:43:39;;;;;;;;;20.67;19.33;;;;;20.73;65.52;101778.16;5056202;28;53277;-76
2021/09/06 01:46:04;;;;;;;;;24.00;20.00;;;;;20.70;65.03;101779.97;5056796;28;50266;-77
2021/09/06 01:48:29;;;;;;;;;23.33;22.67;;;;;20.67;64.93;101789.88;5053296;28;53822;-78
2021/09/06 01:50:55;;;;;;;;;22.33;19.67;;;;;20.64;65.28;101792.59;5056578;28;49464;-77
2021/09/06 01:53:20;;;;;;;;;19.67;19.67;;;;;20.62;65.56;101793.53;5056371;28;53571;-78
2021/09/06 01:55:46;;;;;;;;;25.33;24.00;;;;;20.61;65.40;101792.66;5056894;28;54156;-76
2021/09/06 01:58:11;;;;;;;;;23.00;21.67;;;;;20.60;65.52;101792.66;5042389;28;49956;-78
2021/09/06 02:00:36;;;;;;;;;23.67;21.00;;;;;20.54;65.64;101788.25;5056198;28;51448;-76
2021/09/06 02:03:02;;;;;;;;;22.67;21.00;;;;;20.56;65.61;101790.91;5054461;28;45742;-76
2021/09/06 02:05:27;;;;;;;;;19.00;19.00;;;;;20.54;65.88;101788.25;5052579;28;54073;-77
2021/09/06 02:07:53;;;;;;;;;17.00;16.00;;;;;20.53;65.41;101791.84;5053019;28;56748;-79
2021/09/06 02:10:18;;;;;;;;;23.33;21.33;;;;;20.52;65.98;101791.88;5055482;28;45588;-77
2021/09/06 02:12:43;;;;;;;;;22.00;19.33;;;;;20.50;65.69;101786.53;5058964;28;45563;-76
2021/09/06 02:15:10;;;;;;;;;21.33;21.00;;;;;20.46;66.08;101782.13;5061740;28;47412;-78
2021/09/06 02:17:35;;;;;;;;;21.33;21.00;;;;;20.44;65.99;101775.84;5038888;28;45519;-78
2021/09/06 02:20:00;;;;;;;;;19.33;18.67;;;;;20.47;65.92;101783.03;5053431;28;45460;-78
2021/09/06 02:22:26;;;;;;;;;21.00;20.33;;;;;20.45;65.90;101790.16;5053412;28;54479;-77
2021/09/06 02:24:51;;;;;;;;;26.33;21.67;;;;;20.45;66.10;101785.66;5055322;28;46518;-77
2021/09/06 02:27:17;;;;;;;;;21.00;19.33;;;;;20.44;65.74;101786.59;5041111;28;45407;-78
2021/09/06 02:29:42;;;;;;;;;23.00;20.67;;;;;20.44;65.76;101796.44;5053651;28;45422;-76
2021/09/06 02:32:07;;;;;;;;;23.00;21.00;;;;;20.41;66.38;101798.25;5054407;28;47372;-78
2021/09/06 02:34:33;;;;;;;;;20.67;19.67;;;;;20.42;65.82;101802.72;5053505;28;58508;-77
2021/09/06 02:36:58;;;;;;;;;22.67;21.33;;;;;20.36;66.32;101800.13;5052093;28;48989;-78
2021/09/06 02:39:23;;;;;;;;;20.33;20.33;;;;;20.40;66.06;101804.53;5053028;28;45491;-77
2021/09/06 02:41:49;;;;;;;;;23.33;22.00;;;;;20.37;65.88;101804.56;5054706;28;48912;-77
2021/09/06 02:44:14;;;;;;;;;22.67;22.00;;;;;20.37;66.09;101803.69;5054186;28;46625;-78
2021/09/06 02:46:40;;;;;;;;;24.00;19.67;;;;;20.35;65.66;101802.84;5052703;28;45871;-77
2021/09/06 02:49:05;;;;;;;;;18.67;18.67;;;;;20.33;66.35;101805.50;5039097;28;50130;-78
2021/09/06 02:51:30;;;;;;;;;22.67;21.00;;;;;20.32;66.00;101809.13;5042662;28;52580;-78
2021/09/06 02:53:56;;;;;;;;;24.00;23.00;;;;;20.31;66.27;101807.34;5055314;28;46492;-77
2021/09/06 02:56:21;;;;;;;;;22.33;21.67;;;;;20.26;65.77;101802.94;5048648;28;53454;-76
2021/09/06 02:58:47;;;;;;;;;21.00;20.67;;;;;20.25;66.42;101807.44;5058604;28;54629;-75
2021/09/06 03:01:12;;;;;;;;;20.00;18.00;;;;;20.26;66.51;101811.00;5052353;28;50261;-75
2021/09/06 03:03:37;;;;;;;;;21.67;20.00;;;;;20.26;66.20;101813.69;5029144;28;52827;-76
2021/09/06 03:06:03;;;;;;;;;19.33;18.67;;;;;20.25;66.19;101811.91;5051203;28;53335;-77
2021/09/06 03:08:28;;;;;;;;;19.00;18.00;;;;;20.19;66.13;101801.25;5053800;28;45405;-77
2021/09/06 03:10:54;;;;;;;;;20.33;20.00;;;;;20.17;65.86;101801.28;5058150;28;47878;-77
2021/09/06 03:13:19;;;;;;;;;22.67;19.33;;;;;20.18;65.69;101799.47;5036329;28;54015;-78
2021/09/06 03:15:44;;;;;;;;;18.00;18.00;;;;;20.20;65.82;101811.09;5056097;28;56133;-76
2021/09/06 03:18:10;;;;;;;;;18.33;17.33;;;;;20.15;66.12;101800.41;5058242;28;54470;-77
2021/09/06 03:20:35;;;;;;;;;19.33;19.33;;;;;20.11;66.10;101802.25;5056777;28;45545;-75
2021/09/06 03:23:00;;;;;;;;;18.67;15.67;;;;;20.17;65.95;101806.63;5052487;28;46384;-78
2021/09/06 03:25:26;;;;;;;;;18.00;16.00;;;;;20.08;65.77;101796.94;5042315;28;45507;-76
2021/09/06 03:27:51;;;;;;;;;20.33;18.00;;;;;20.12;65.74;101809.38;5055293;28;48233;-77
2021/09/06 03:30:17;;;;;;;;;21.67;19.67;;;;;20.11;65.76;101804.03;5057332;28;47846;-77
2021/09/06 03:32:42;;;;;;;;;18.00;18.00;;;;;20.10;65.92;101804.94;5054320;28;46278;-76
2021/09/06 03:35:08;;;;;;;;;21.67;20.00;;;;;20.08;65.93;101804.97;5041872;28;46418;-76
2021/09/06 03:37:33;;;;;;;;;18.67;17.67;;;;;20.02;65.64;101794.31;5058238;28;45419;-76
2021/09/06 03:39:59;;;;;;;;;19.33;16.33;;;;;20.05;65.57;101804.13;5055883;28;50460;-77
2021/09/06 03:42:24;;;;;;;;;24.33;18.67;;;;;20.02;65.91;101801.47;5052948;28;47143;-76
2021/09/06 03:44:49;;;;;;;;;21.00;20.33;;;;;20.01;66.26;101810.41;5058132;28;55189;-77
2021/09/06 03:47:15;;;;;;;;;20.67;18.67;;;;;20.00;65.86;101797.94;5051725;28;56678;-75
2021/09/06 03:49:40;;;;;;;;;18.67;16.67;;;;;19.96;66.40;101797.06;5059766;28;45480;-77
2021/09/06 03:52:06;;;;;;;;;19.67;17.67;;;;;19.95;66.46;101800.66;5060638;28;57763;-75
2021/09/06 03:54:31;;;;;;;;;19.33;18.67;;;;;19.97;66.26;101806.00;5060421;28;58145;-77
2021/09/06 03:56:56;;;;;;;;;23.33;20.67;;;;;19.94;66.40;101801.56;5053623;28;49809;-78
2021/09/06 03:59:22;;;;;;;;;21.00;18.67;;;;;19.87;66.45;101792.72;5051710;28;50191;-77
2021/09/06 04:01:48;;;;;;;;;22.00;20.00;;;;;19.86;66.56;101796.28;5051998;28;46184;-76
2021/09/06 04:04:13;;;;;;;;;20.67;18.67;;;;;19.88;66.48;101799.84;5051712;28;45743;-77
2021/09/06 04:06:38;;;;;;;;;22.33;21.33;;;;;19.85;66.44;101797.19;5053312;28;45603;-78
2021/09/06 04:09:04;;;;;;;;;21.00;20.00;;;;;19.85;66.53;101793.63;5059603;28;45604;-77
2021/09/06 04:11:29;;;;;;;;;19.33;19.33;;;;;19.83;66.81;101803.50;5052952;28;45710;-75
2021/09/06 04:13:55;;;;;;;;;21.67;19.00;;;;;19.81;66.52;101800.81;5051840;28;45509;-77
2021/09/06 04:16:20;;;;;;;;;18.67;16.33;;;;;19.78;66.75;101794.63;5040229;28;46103;-77
2021/09/06 04:18:45;;;;;;;;;19.00;18.33;;;;;19.75;67.00;101806.25;5052319;28;53155;-77
2021/09/06 04:21:11;;;;;;;;;19.33;18.67;;;;;19.73;66.73;101802.72;5053696;28;60159;-77
2021/09/06 04:23:36;;;;;;;;;19.00;17.33;;;;;19.72;67.35;101789.34;5059544;28;54817;-78
2021/09/06 04:26:02;;;;;;;;;20.33;18.00;;;;;19.71;66.75;101798.25;5054429;28;45608;-76
2021/09/06 04:28:27;;;;;;;;;23.00;22.00;;;;;19.68;67.09;101801.00;5056831;28;49159;-78
2021/09/06 04:30:53;;;;;;;;;18.67;18.67;;;;;19.65;67.16;101807.25;5054411;28;46391;-77
2021/09/06 04:33:19;;;;;;;;;21.00;20.00;;;;;19.64;67.00;101813.53;5055708;28;45470;-76
2021/09/06 04:35:44;;;;;;;;;21.33;20.67;;;;;19.60;67.54;101810.00;5141166;22;52308;-77
2021/09/06 04:38:10;;;;;;;;;21.00;18.00;;;;;19.58;67.48;101813.56;4988623;28;45980;-75
2021/09/06 04:40:35;;;;;;;;;20.00;19.00;;;;;19.56;67.79;101818.94;4991454;27;59802;-76
2021/09/06 04:43:00;;;;;;;;;23.00;19.33;;;;;19.55;67.25;101825.22;4988324;27;45531;-75
2021/09/06 04:45:26;;;;;;;;;20.00;20.00;;;;;19.44;67.85;101811.03;4990043;28;55320;-76
2021/09/06 04:47:51;;;;;;;;;18.67;18.67;;;;;19.50;67.92;101836.88;4990724;27;47094;-76
2021/09/06 04:50:17;;;;;;;;;17.00;16.00;;;;;19.47;68.22;101834.22;4990958;28;55453;-75
2021/09/06 04:52:42;;;;;;;;;22.33;18.33;;;;;19.45;68.06;101833.34;4991115;28;45447;-77
2021/09/06 04:55:08;;;;;;;;;18.00;18.00;;;;;19.42;68.03;101833.38;4992355;27;45557;-75
2021/09/06 04:57:33;;;;;;;;;22.00;20.33;;;;;19.42;68.33;101844.09;4991936;27;45540;-76
2021/09/06 04:59:59;;;;;;;;;21.67;21.67;;;;;19.34;68.10;101830.78;4990185;28;45699;-75
2021/09/06 05:02:24;;;;;;;;;22.33;22.00;;;;;19.36;68.62;101842.34;4991350;28;45551;-75
2021/09/06 05:04:49;;;;;;;;;25.67;21.00;;;;;19.35;68.22;101846.81;4991153;28;45482;-76
2021/09/06 05:07:15;;;;;;;;;20.33;19.00;;;;;19.35;69.03;101844.16;4990529;28;53309;-77
2021/09/06 05:09:40;;;;;;;;;23.00;20.33;;;;;19.34;68.75;101847.72;4990515;28;45507;-75
2021/09/06 05:12:06;;;;;;;;;20.00;20.00;;;;;19.34;68.77;101842.38;4990321;27;45510;-76
2021/09/06 05:14:31;;;;;;;;;23.00;20.33;;;;;19.34;69.02;101849.53;5007227;27;57444;-75
2021/09/06 05:16:57;;;;;;;;;23.00;20.00;;;;;19.34;68.96;101850.41;4990893;28;45899;-75
2021/09/06 05:19:22;;;;;;;;;23.00;23.00;;;;;19.35;69.56;101853.97;4990578;28;52884;-75
2021/09/06 05:21:47;;;;;;;;;25.33;21.00;;;;;19.36;69.48;101855.75;4989755;28;46826;-76
2021/09/06 05:24:13;;;;;;;;;27.67;24.33;;;;;19.35;69.18;101860.22;4990712;28;45571;-74
2021/09/06 05:26:38;;;;;;;;;24.33;23.00;;;;;19.35;69.28;101857.53;4990449;28;52687;-76
2021/09/06 05:29:04;;;;;;;;;27.00;25.00;;;;;19.36;69.68;101866.44;4988955;28;46742;-75
2021/09/06 05:31:29;;;;;;;;;29.33;24.67;;;;;19.32;70.40;101862.03;4990649;28;45508;-76
2021/09/06 05:33:55;;;;;;;;;27.00;25.00;;;;;19.34;70.04;101878.97;4990192;28;45453;-73
2021/09/06 05:36:20;;;;;;;;;23.00;22.00;;;;;19.35;70.77;101873.59;4991033;28;45408;-75
2021/09/06 05:38:45;;;;;;;;;30.33;26.67;;;;;19.40;69.78;101884.28;4989298;28;56399;-75
2021/09/06 05:41:15;;;;;;;;;28.33;26.00;;;;;19.41;70.34;101891.41;4988912;28;45606;-74
2021/09/06 05:43:40;;;;;;;;;26.67;24.33;;;;;19.41;70.87;101896.75;4990110;27;45586;-75
2021/09/06 05:46:05;;;;;;;;;22.33;22.00;;;;;19.40;70.06;101896.78;4988739;27;51498;-80
2021/09/06 05:48:31;;;;;;;;;28.00;26.67;;;;;19.41;70.99;101891.41;4981235;28;58916;-82
2021/09/06 05:50:56;;;;;;;;;31.00;29.00;;;;;19.43;70.94;101894.06;4976315;28;45477;-80
2021/09/06 05:53:21;;;;;;;;;30.33;28.00;;;;;19.41;70.86;101886.06;4977186;28;45960;-78
2021/09/06 05:55:47;;;;;;;;;31.00;28.00;;;;;19.47;70.49;101901.19;4978075;28;49036;-80
2021/09/06 05:58:12;;;;;;;;;29.33;28.33;;;;;19.49;70.46;101904.72;4976689;28;45450;-77
2021/09/06 06:00:38;;;;;;;;;31.33;25.00;;;;;19.47;71.02;101902.06;4980505;28;55086;-75
2021/09/06 06:03:03;;;;;;;;;30.67;28.00;;;;;19.53;71.47;101914.50;4988132;28;53038;-77
2021/09/06 06:05:28;;;;;;;;;32.00;30.00;;;;;19.50;71.06;101904.72;4981016;28;49552;-77
2021/09/06 06:07:54;;;;;;;;;30.33;27.00;;;;;19.52;70.87;101910.94;4996365;27;57493;-76
2021/09/06 06:10:21;;;;;;;;;34.33;29.67;;;;;19.57;71.13;101916.28;4988648;27;45613;-81
2021/09/06 06:12:46;;;;;;;;;45.67;35.67;;;;;19.61;71.69;101931.47;4977937;28;45794;-78
2021/09/06 06:15:12;;;;;;;;;35.67;33.33;;;;;19.65;71.18;101922.47;4978773;28;45793;-76
2021/09/06 06:17:39;;;;;;;;;30.67;29.00;;;;;19.67;70.82;101922.47;4981468;28;57216;-76
2021/09/06 06:20:05;;;;;;;;;29.33;26.67;;;;;19.71;71.09;101919.75;4982106;28;45547;-81
2021/09/06 06:22:31;;;;;;;;;33.67;29.00;;;;;19.76;70.72;101927.72;4986916;28;45757;-77
2021/09/06 06:24:56;;;;;;;;;37.33;30.00;;;;;19.78;70.63;101921.47;4985955;28;45572;-80
2021/09/06 06:27:22;;;;;;;;;32.00;30.00;;;;;19.82;70.59;101933.94;4986249;28;46268;-77
2021/09/06 06:29:47;;;;;;;;;33.00;30.00;;;;;19.81;70.76;101924.09;4987726;28;45599;-79
2021/09/06 06:32:13;;;;;;;;;31.00;29.33;;;;;19.90;70.31;101928.50;4983089;28;49713;-77
2021/09/06 06:34:38;;;;;;;;;31.00;29.33;;;;;19.95;70.89;101929.34;4975449;28;52517;-82
2021/09/06 06:37:04;;;;;;;;;30.67;28.33;;;;;19.95;70.44;101931.13;4982864;28;46539;-76
2021/09/06 06:39:29;;;;;;;;;33.67;30.67;;;;;20.02;70.42;101936.41;4985274;27;49485;-76
2021/09/06 06:48:39;;;;;;;;;28.67;28.33;;;;;20.18;70.11;101937.13;4984793;28;47162;-76
2021/09/06 06:51:04;;;;;;;;;36.67;31.67;;;;;20.20;70.32;101926.41;4994085;28;47093;-77
2021/09/06 06:53:29;;;;;;;;;33.67;30.00;;;;;20.27;70.25;101930.78;4989517;28;46067;-77
2021/09/06 06:55:55;;;;;;;;;33.00;30.00;;;;;20.34;69.84;101937.84;4987912;28;55871;-75
2021/09/06 06:58:20;;;;;;;;;33.00;30.00;;;;;20.37;69.45;101938.69;4988161;28;55974;-75
2021/09/06 07:00:46;;;;;;;;;34.33;29.33;;;;;20.44;69.79;101935.94;4982884;28;54791;-78
2021/09/06 07:03:11;;;;;;;;;32.67;28.33;;;;;20.49;69.57;101940.38;4987577;28;45436;-81
2021/09/06 07:05:36;;;;;;;;;27.67;27.33;;;;;20.55;68.77;101942.09;4985172;28;52569;-78
2021/09/06 07:08:02;;;;;;;;;28.33;24.67;;;;;20.60;68.81;101945.59;4983260;28;47392;-76
2021/09/06 07:10:44;;;;;;;;;38.00;33.00;;;;;20.63;68.66;101943.78;4987248;27;45579;-78
2021/09/06 07:13:09;;;;;;;;;33.67;32.00;;;;;20.67;68.75;101939.28;4977295;27;50318;-76
2021/09/06 07:15:35;;;;;;;;;27.33;27.00;;;;;20.74;68.31;101948.13;4985391;27;49029;-79
2021/09/06 07:18:00;;;;;;;;;27.33;21.67;;;;;20.77;67.72;101950.75;4984534;27;46311;-76
2021/09/06 07:20:26;;;;;;;;;26.00;24.00;;;;;20.82;67.21;101955.16;4987008;27;46863;-75
2021/09/06 07:22:52;;;;;;;;;20.33;18.67;;;;;20.84;67.24;101947.97;4986694;28;45556;-73
2021/09/06 07:25:17;;;;;;;;;23.00;21.67;;;;;20.90;67.33;101957.75;4985071;28;45771;-74
2021/09/06 07:27:42;;;;;;;;;20.00;18.33;;;;;20.92;66.79;101950.53;4993532;27;61756;-74
2021/09/06 07:30:08;;;;;;;;;22.33;20.00;;;;;20.96;66.97;101952.28;4988886;27;46750;-74
2021/09/06 07:32:33;;;;;;;;;24.33;23.00;;;;;20.99;66.50;101954.06;4988061;28;45534;-74
2021/09/06 07:34:59;;;;;;;;;20.67;19.67;;;;;20.99;65.92;101957.63;4988279;27;45680;-75
2021/09/06 07:37:24;;;;;;;;;22.67;22.67;;;;;21.04;66.62;101960.22;5007365;27;52760;-74
2021/09/06 07:39:49;;;;;;;;;25.00;25.00;;;;;21.09;66.12;101970.00;5007913;27;45519;-75
2021/09/06 07:42:15;;;;;;;;;24.33;21.33;;;;;21.12;66.15;101964.59;4983154;27;51343;-74
2021/09/06 07:44:40;;;;;;;;;23.67;23.00;;;;;21.15;65.25;101969.03;4980002;28;50773;-75
2021/09/06 07:47:06;;;;;;;;;23.00;21.67;;;;;21.16;65.53;101969.00;4988352;27;46335;-77
2021/09/06 07:49:31;;;;;;;;;25.67;23.00;;;;;21.23;64.87;101975.16;4989178;27;54743;-74
2021/09/06 07:51:56;;;;;;;;;28.33;23.33;;;;;21.26;64.63;101972.44;4984080;28;45476;-75
2021/09/06 07:54:23;;;;;;;;;28.67;25.33;;;;;21.28;64.37;101969.72;4984347;28;46308;-75
2021/09/06 07:56:50;;;;;;;;;28.00;23.00;;;;;21.34;63.58;101981.28;4985758;28;46227;-74
2021/09/06 07:59:25;;;;;;;;;21.67;19.33;;;;;21.35;64.29;101966.94;4986660;28;45677;-74
2021/09/06 08:01:50;;;;;;;;;26.67;24.33;;;;;21.42;63.90;101967.75;4986104;28;45455;-76
2021/09/06 08:04:16;;;;;;;;;22.33;21.00;;;;;21.49;64.40;101971.22;4984347;28;51354;-75
2021/09/06 08:06:41;;;;;;;;;27.33;22.67;;;;;21.53;63.84;101981.91;4984012;28;46668;-75
2021/09/06 08:09:07;;;;;;;;;21.33;19.67;;;;;21.57;63.51;101988.09;4987766;28;45571;-74
2021/09/06 08:11:32;;;;;;;;;22.00;20.33;;;;;21.60;63.06;101978.19;4981483;28;45571;-76
2021/09/06 08:13:58;;;;;;;;;24.33;20.67;;;;;21.66;63.06;101986.16;4983707;28;51336;-74
2021/09/06 08:16:23;;;;;;;;;20.67;18.67;;;;;21.66;63.50;101983.47;4993641;27;45750;-76
2021/09/06 08:18:48;;;;;;;;;25.00;22.67;;;;;21.74;63.06;101985.16;4987094;28;45563;-76
2021/09/06 08:21:25;;;;;;;;;24.33;22.00;;;;;21.80;62.28;101991.31;4985350;28;53162;-75
2021/09/06 08:23:51;;;;;;;;;22.00;17.67;;;;;21.86;63.18;101984.94;4979405;28;45523;-76
2021/09/06 08:26:16;;;;;;;;;20.67;19.00;;;;;21.89;62.94;101988.47;4980381;28;46570;-76
2021/09/06 08:28:42;;;;;;;;;26.00;22.67;;;;;21.92;62.47;101984.81;4986499;27;45472;-75
2021/09/06 08:31:07;;;;;;;;;26.00;21.67;;;;;22.00;62.13;101988.28;4986829;27;45569;-77
2021/09/06 08:33:32;;;;;;;;;23.33;22.33;;;;;22.03;61.65;101981.94;4981480;28;45425;-75
2021/09/06 08:35:58;;;;;;;;;22.00;22.00;;;;;22.06;62.21;101981.91;4984527;27;46373;-75
2021/09/06 08:38:23;;;;;;;;;20.33;16.33;;;;;22.06;62.18;101976.53;4992339;27;45417;-78
2021/09/06 08:40:49;;;;;;;;;18.67;17.33;;;;;22.17;61.96;101985.31;4981454;28;45570;-76
2021/09/06 08:43:14;;;;;;;;;20.33;16.67;;;;;22.22;61.64;101983.44;5008728;27;45504;-76
2021/09/06 08:45:40;;;;;;;;;21.67;18.67;;;;;22.27;61.25;101984.22;4987755;27;46919;-76
2021/09/06 08:48:05;;;;;;;;;23.33;18.67;;;;;22.31;61.37;101968.88;5018106;27;45349;-76
2021/09/06 08:50:32;;;;;;;;;18.67;16.33;;;;;22.37;61.82;101980.44;5001723;27;45761;-79
2021/09/06 08:52:57;;;;;;;;;22.33;18.67;;;;;22.41;61.14;101979.44;5022305;27;45564;-75
2021/09/06 08:55:23;;;;;;;;;21.00;19.00;;;;;22.48;61.49;101981.13;4978567;27;46284;-76
2021/09/06 08:57:48;;;;;;;;;20.00;17.00;;;;;22.53;60.67;101985.50;5007275;27;46154;-75
2021/09/06 09:00:14;;;;;;;;;24.00;21.00;;;;;22.56;60.15;101986.31;4980387;27;50748;-77
2021/09/06 09:02:41;;;;;;;;;17.33;17.33;;;;;22.65;61.04;101985.25;4999848;27;45648;-77
2021/09/06 09:05:08;;;;;;;;;19.33;17.00;;;;;22.66;60.51;101978.94;4986213;27;46832;-77
2021/09/06 09:07:34;;;;;;;;;19.33;18.00;;;;;22.74;59.56;101982.34;4991522;27;46130;-76
2021/09/06 09:09:59;;;;;;;;;16.00;14.67;;;;;22.80;60.01;101982.25;4979786;28;45780;-76
2021/09/06 09:12:26;;;;;;;;;20.00;18.33;;;;;22.86;59.58;101982.13;4989140;27;45619;-76
2021/09/06 09:14:59;;;;;;;;;17.00;17.00;;;;;22.92;61.08;101978.44;4997771;27;45875;-76
2021/09/06 09:17:24;;;;;;;;;17.33;15.33;;;;;22.96;60.32;101977.44;4987159;27;45418;-77
2021/09/06 09:19:50;;;;;;;;;15.67;14.33;;;;;23.02;60.67;101973.72;5003166;27;45881;-77
2021/09/06 09:22:18;;;;;;;;;19.67;16.33;;;;;23.05;60.32;101979.03;4989375;27;45467;-78
2021/09/06 09:24:43;;;;;;;;;18.00;16.00;;;;;23.07;60.70;101977.22;5022426;27;47118;-77
2021/09/06 09:27:11;;;;;;;;;16.00;15.67;;;;;23.13;60.62;101986.03;5006992;27;45871;-76
2021/09/06 09:29:39;;;;;;;;;19.00;16.33;;;;;23.07;60.09;101967.31;5011354;27;45538;-77
2021/09/06 09:32:07;;;;;;;;;19.33;16.33;;;;;23.18;60.54;101972.47;4995922;27;45442;-77
2021/09/06 09:34:39;;;;;;;;;15.33;13.67;;;;;23.22;61.03;101974.13;4994754;27;46642;-77
2021/09/06 09:37:05;;;;;;;;;17.67;16.67;;;;;23.28;60.39;101984.78;4989605;27;45580;-77
2021/09/06 09:39:33;;;;;;;;;17.67;15.67;;;;;23.35;60.38;101991.81;4988695;28;45441;-77
2021/09/06 09:42:11;;;;;;;;;15.33;13.67;;;;;23.36;60.85;101981.91;4996309;27;45500;-76
2021/09/06 09:44:54;;;;;;;;;19.00;16.00;;;;;23.43;60.08;101980.81;4985741;28;47526;-76
2021/09/06 09:47:20;;;;;;;;;15.00;14.00;;;;;23.49;60.58;101983.41;4992817;27;45533;-77
2021/09/06 09:49:47;;;;;;;;;14.33;14.33;;;;;23.51;59.81;101977.03;4995950;27;45601;-76
2021/09/06 09:52:13;;;;;;;;;17.33;16.33;;;;;23.60;60.14;101983.13;4990614;27;45839;-78
2021/09/06 09:54:38;;;;;;;;;13.67;13.33;;;;;23.62;59.43;101975.88;5004490;27;45956;-78
2021/09/06 09:57:04;;;;;;;;;16.00;13.67;;;;;23.65;59.92;101975.81;5020801;27;45324;-78
2021/09/06 09:59:29;;;;;;;;;16.33;13.00;;;;;23.69;59.76;101969.44;4990036;27;45531;-81
2021/09/06 10:02:04;;;;;;;;;15.33;14.33;;;;;23.78;59.37;101974.59;4991913;27;45638;-79
2021/09/06 10:04:34;;;;;;;;;15.33;15.33;;;;;23.81;59.74;101977.22;5003662;27;46812;-81
2021/09/06 10:07:00;;;;;;;;;18.33;17.67;;;;;23.83;58.85;101969.97;4972030;27;45752;-83
2021/09/06 10:09:27;;;;;;;;;18.00;14.33;;;;;23.91;59.58;101981.44;4993829;27;45626;-79
2021/09/06 10:11:52;;;;;;;;;17.67;16.00;;;;;23.93;59.11;101984.13;4987309;28;45554;-79
2021/09/06 10:14:22;;;;;;;;;17.00;14.33;;;;;23.96;59.08;101982.19;4987203;27;47310;-79
2021/09/06 10:16:48;;;;;;;;;16.33;13.33;;;;;24.01;59.31;101979.38;4989176;27;45494;-80
2021/09/06 10:19:14;;;;;;;;;15.67;15.67;;;;;24.02;58.87;101976.66;4987355;27;45542;-78
2021/09/06 10:21:51;;;;;;;;;17.33;16.33;;;;;24.05;58.29;101968.47;4984825;28;45480;-76
2021/09/06 10:24:18;;;;;;;;;14.67;13.00;;;;;24.08;58.34;101962.13;4985135;28;45494;-78
2021/09/06 10:26:44;;;;;;;;;18.33;15.00;;;;;24.19;56.40;101965.41;4986449;28;45948;-78
2021/09/06 10:29:14;;;;;;;;;16.00;16.00;;;;;24.26;57.81;101966.13;4988158;28;45546;-79
2021/09/06 10:31:39;;;;;;;;;15.00;12.00;;;;;24.27;57.14;101957.09;4986904;28;46221;-78
2021/09/06 10:34:07;;;;;;;;;18.33;15.67;;;;;24.37;56.27;101960.44;5002141;28;63720;-78
2021/09/06 10:36:32;;;;;;;;;17.67;15.00;;;;;24.43;56.62;101957.56;4978425;28;45572;-78
2021/09/06 10:39:08;;;;;;;;;15.33;15.33;;;;;24.49;57.24;101966.38;4976186;27;53745;-79
2021/09/06 10:41:44;;;;;;;;;14.67;14.00;;;;;24.55;56.55;101957.22;4987439;27;45989;-80
2021/09/06 10:44:10;;;;;;;;;14.00;12.00;;;;;24.61;57.13;101961.53;4987384;27;46892;-78
2021/09/06 10:46:35;;;;;;;;;15.33;13.33;;;;;24.69;56.64;101949.59;4985070;28;45497;-77
2021/09/06 10:49:01;;;;;;;;;13.33;13.33;;;;;24.77;56.37;101958.38;4987349;27;57141;-78
2021/09/06 10:51:29;;;;;;;;;16.00;14.00;;;;;24.87;56.46;101958.06;4988218;28;45658;-78
2021/09/06 10:53:55;;;;;;;;;14.00;12.33;;;;;24.92;55.44;101950.69;4989203;28;46117;-79
2021/09/06 10:56:24;;;;;;;;;16.67;16.33;;;;;25.01;56.29;101953.13;4987747;27;45600;-78
2021/09/06 10:58:50;;;;;;;;;16.00;16.00;;;;;25.04;55.54;101956.63;4989428;28;45457;-77
2021/09/06 11:01:16;;;;;;;;;15.33;15.33;;;;;25.06;55.55;101946.69;4989301;28;45755;-78
2021/09/06 11:03:41;;;;;;;;;15.00;13.00;;;;;25.12;54.62;101944.72;4987802;28;60466;-76
2021/09/06 11:06:07;;;;;;;;;13.67;13.00;;;;;25.15;54.54;101952.75;4989755;27;55930;-79
2021/09/06 11:08:36;;;;;;;;;13.00;13.00;;;;;25.20;55.41;101946.25;4988808;28;46038;-79
2021/09/06 11:11:03;;;;;;;;;17.00;15.00;;;;;25.24;53.48;101945.19;4989318;28;45491;-77